Mullins Prairie, Texas
Current Conditions -  °F | °C
As of 5:55 AM on Sunday 25 Jan 2015 (Local Time) from K3T5 Reporting Station
Clear Clear  
Wind Chill: 42°   Ceiling: Unl
Heat Index: 42°   Visibility: 10mi
Dew Point: 36°   Wind: 3mph
Humidity: 80%   Direction: 240°WSW
Pressure: 30.02"   Gusts: NA
Location:  29.8569°N, 96.9311°W
Report Text: K3T5 251155Z AUTO 24003KT 10SM CLR 06/02 A3002 RMK AO2 T00560024 10089 20054
Loading
Personal Weather Stations






























Interactive Weather Map New forecast layout! Learn more

10-Day Weather Forecast

Advertisements
Track Severe Weather on mobile